Time;durP1;ratioP1;P1;durP2;ratioP2;P2;SDS_P1;SDS_P2;PMS_P1;PMS_P2;Temp;Humidity;BMP_temperature;BMP_pressure;BME280_temperature;BME280_humidity;BME280_pressure;Samples;Min_cycle;Max_cycle;Signal;HPM_P1;HPM_P2
2023/12/16 00:02:14;;;;;;;2.50;1.13;;;2.80;67.80;;;;;;5032175;28;20052;-71
2023/12/16 00:04:40;;;;;;;3.38;1.25;;;2.90;67.70;;;;;;5036455;28;20514;-73
2023/12/16 00:07:07;;;;;;;2.83;1.67;;;2.80;67.50;;;;;;5034418;28;20041;-71
2023/12/16 00:09:33;;;;;;;3.97;2.20;;;2.80;67.80;;;;;;5041747;28;20514;-71
2023/12/16 00:11:59;;;;;;;8.23;1.75;;;2.90;67.70;;;;;;5043415;28;20038;-70
2023/12/16 00:14:25;;;;;;;3.97;1.17;;;2.90;67.80;;;;;;5039415;28;20394;-70
2023/12/16 00:16:51;;;;;;;2.00;1.40;;;2.90;68.00;;;;;;5052767;28;20041;-70
2023/12/16 00:19:17;;;;;;;3.20;1.02;;;2.90;68.00;;;;;;5049078;28;20026;-71
2023/12/16 00:21:43;;;;;;;1.23;0.98;;;3.00;67.80;;;;;;5047622;28;20463;-72
2023/12/16 00:24:09;;;;;;;7.32;2.33;;;3.00;68.00;;;;;;5037068;28;20037;-73
2023/12/16 00:26:35;;;;;;;1.80;1.35;;;3.10;67.90;;;;;;5035172;28;20335;-72
2023/12/16 00:29:01;;;;;;;;;;;3.10;67.10;;;;;;5045431;28;20048;-71
2023/12/16 00:31:28;;;;;;;3.58;1.17;;;3.20;67.60;;;;;;5052817;28;19916;-71
2023/12/16 00:33:54;;;;;;;3.22;1.45;;;3.10;68.00;;;;;;5045862;28;20064;-71
2023/12/16 00:36:20;;;;;;;3.42;1.65;;;3.20;67.90;;;;;;5040208;28;20025;-73
2023/12/16 00:38:46;;;;;;;3.05;1.45;;;3.20;67.70;;;;;;5033215;28;20570;-73
2023/12/16 00:41:12;;;;;;;4.40;3.38;;;3.20;67.70;;;;;;5032640;28;20041;-71
2023/12/16 00:43:38;;;;;;;;;;;3.30;67.90;;;;;;5043657;28;20040;-71
2023/12/16 00:46:04;;;;;;;3.85;3.15;;;3.30;68.10;;;;;;5053617;28;20027;-73
2023/12/16 00:48:30;;;;;;;6.80;4.07;;;3.30;68.00;;;;;;5048395;28;20044;-73
2023/12/16 00:50:56;;;;;;;6.20;3.65;;;3.30;67.70;;;;;;5032566;28;20041;-71
2023/12/16 00:53:22;;;;;;;7.15;3.10;;;3.40;67.70;;;;;;5050900;28;20055;-71
2023/12/16 00:55:48;;;;;;;4.82;3.08;;;3.40;67.50;;;;;;5051395;28;20033;-73
2023/12/16 00:58:14;;;;;;;7.82;3.35;;;3.40;67.50;;;;;;5052888;28;20485;-73
2023/12/16 01:00:42;;;;;;;5.72;2.60;;;3.40;67.60;;;;;;5055370;28;20040;-72
2023/12/16 01:03:08;;;;;;;5.40;2.60;;;3.50;67.50;;;;;;5064219;28;20033;-73
2023/12/16 01:05:48;;;;;;;4.90;3.13;;;3.40;66.90;;;;;;5070895;28;20060;-73
2023/12/16 01:08:15;;;;;;;6.10;3.88;;;3.50;67.50;;;;;;5066980;28;20096;-73
2023/12/16 01:10:41;;;;;;;8.80;3.95;;;3.50;67.50;;;;;;5065063;28;20080;-73
2023/12/16 01:13:07;;;;;;;8.73;3.92;;;3.50;67.60;;;;;;5051205;28;20041;-71
2023/12/16 01:15:33;;;;;;;6.32;4.25;;;3.50;67.50;;;;;;5052248;28;20482;-73
2023/12/16 01:17:59;;;;;;;12.48;5.90;;;3.50;67.40;;;;;;5052700;28;20032;-71
2023/12/16 01:20:25;;;;;;;10.88;4.05;;;3.50;67.60;;;;;;5050549;28;20044;-71
2023/12/16 01:22:51;;;;;;;5.82;3.42;;;3.50;67.40;;;;;;5051218;28;20032;-71
2023/12/16 01:25:17;;;;;;;5.85;3.38;;;3.40;67.40;;;;;;5050962;28;20041;-73
2023/12/16 01:27:43;;;;;;;5.00;2.58;;;3.40;67.20;;;;;;5052233;28;20040;-73
2023/12/16 01:30:10;;;;;;;2.17;1.45;;;3.30;67.10;;;;;;5050367;28;20099;-71
2023/12/16 01:32:35;;;;;;;;;;;3.30;67.10;;;;;;5051505;28;20078;-73
2023/12/16 01:35:02;;;;;;;8.75;2.50;;;3.30;67.10;;;;;;5052531;28;19917;-71
2023/12/16 01:37:29;;;;;;;2.17;1.30;;;3.40;67.20;;;;;;5051286;28;20029;-71
2023/12/16 01:39:55;;;;;;;3.85;2.03;;;3.40;67.20;;;;;;5052562;28;20428;-73
2023/12/16 01:42:21;;;;;;;1.77;1.15;;;3.40;67.30;;;;;;5050459;28;20037;-73
2023/12/16 01:44:47;;;;;;;2.88;1.25;;;3.40;67.70;;;;;;5052540;28;20033;-73
2023/12/16 01:47:13;;;;;;;1.55;1.02;;;3.40;67.80;;;;;;5050777;28;20083;-71
2023/12/16 01:49:40;;;;;;;2.92;1.67;;;3.40;67.70;;;;;;5051012;28;20510;-71
2023/12/16 01:52:07;;;;;;;1.55;1.13;;;3.50;68.10;;;;;;5050387;28;20041;-73
2023/12/16 01:54:33;;;;;;;1.45;0.77;;;3.40;68.50;;;;;;5050845;28;20037;-73
2023/12/16 01:57:01;;;;;;;1.45;1.13;;;3.40;67.80;;;;;;5052840;28;20057;-72
2023/12/16 01:59:27;;;;;;;2.63;0.90;;;3.50;68.30;;;;;;5055188;28;20029;-73
2023/12/16 02:01:55;;;;;;;6.40;2.30;;;3.50;67.80;;;;;;5055352;28;20045;-71
2023/12/16 02:04:21;;;;;;;2.70;1.58;;;3.40;67.90;;;;;;5054623;28;20088;-73
2023/12/16 02:06:47;;;;;;;5.55;2.05;;;3.50;68.60;;;;;;5054635;28;20025;-73
2023/12/16 02:09:15;;;;;;;4.10;2.17;;;3.50;68.60;;;;;;5054927;28;20041;-72
2023/12/16 02:11:41;;;;;;;4.45;1.63;;;3.50;68.50;;;;;;5055457;28;20057;-72
2023/12/16 02:14:07;;;;;;;2.80;1.70;;;3.50;68.30;;;;;;5055530;28;20044;-71
2023/12/16 02:16:33;;;;;;;2.22;1.40;;;3.60;68.30;;;;;;5055944;28;20091;-71
2023/12/16 02:18:59;;;;;;;4.97;1.55;;;3.60;68.40;;;;;;5054585;28;20041;-72
2023/12/16 02:21:25;;;;;;;2.60;1.73;;;3.60;68.20;;;;;;5054174;28;20087;-73
2023/12/16 02:23:51;;;;;;;1.98;1.33;;;3.60;67.80;;;;;;5055539;28;20045;-71
2023/12/16 02:26:17;;;;;;;2.63;2.13;;;3.60;67.80;;;;;;5054581;28;20040;-73
2023/12/16 02:28:43;;;;;;;3.53;2.05;;;3.60;67.80;;;;;;5055846;28;20086;-73
2023/12/16 02:31:09;;;;;;;6.32;2.63;;;3.60;68.30;;;;;;5055152;28;20041;-71
2023/12/16 02:33:35;;;;;;;3.55;1.50;;;3.60;68.30;;;;;;5054322;28;20045;-73
2023/12/16 02:36:01;;;;;;;2.08;1.38;;;3.60;68.50;;;;;;5055405;28;20044;-73
2023/12/16 02:38:27;;;;;;;2.45;1.10;;;3.50;68.70;;;;;;5054234;28;20060;-71
2023/12/16 02:40:54;;;;;;;1.35;0.98;;;3.50;68.70;;;;;;5054760;28;20504;-71
2023/12/16 02:43:21;;;;;;;3.45;1.70;;;3.60;68.90;;;;;;5055526;28;20063;-73
2023/12/16 02:45:47;;;;;;;2.55;1.20;;;3.50;68.80;;;;;;5053878;28;20083;-73
2023/12/16 02:48:13;;;;;;;1.42;0.65;;;3.50;68.80;;;;;;5055514;28;20350;-73
2023/12/16 02:50:39;;;;;;;4.90;1.77;;;3.60;68.80;;;;;;5054489;28;20037;-73
2023/12/16 02:53:06;;;;;;;2.92;1.42;;;3.60;68.60;;;;;;5055048;28;20082;-73
2023/12/16 02:55:32;;;;;;;2.80;1.80;;;3.60;68.60;;;;;;5053825;28;20116;-72
2023/12/16 02:57:58;;;;;;;1.55;1.08;;;3.60;68.70;;;;;;5053883;28;20083;-73
2023/12/16 03:00:25;;;;;;;3.00;2.15;;;3.60;68.60;;;;;;5053196;28;20517;-71
2023/12/16 03:02:51;;;;;;;5.40;2.55;;;3.60;68.60;;;;;;5070255;28;20039;-71
2023/12/16 03:05:17;;;;;;;5.95;1.77;;;3.60;68.70;;;;;;5054978;28;20044;-72
2023/12/16 03:07:43;;;;;;;5.53;2.83;;;3.60;68.90;;;;;;5053010;28;20505;-71
2023/12/16 03:10:09;;;;;;;6.43;2.80;;;3.60;68.90;;;;;;5053020;28;20037;-73
2023/12/16 03:12:35;;;;;;;6.47;2.95;;;3.60;68.90;;;;;;5054812;28;20398;-73
2023/12/16 03:15:01;;;;;;;4.88;2.58;;;3.60;68.90;;;;;;5054843;28;20091;-73
2023/12/16 03:17:27;;;;;;;2.78;1.83;;;3.60;68.80;;;;;;5053757;28;20071;-73
2023/12/16 03:19:53;;;;;;;5.45;2.75;;;3.60;68.80;;;;;;5054524;28;20049;-71
2023/12/16 03:22:19;;;;;;;5.60;2.20;;;3.70;68.90;;;;;;5052866;28;20040;-72
2023/12/16 03:24:46;;;;;;;6.05;3.20;;;3.70;69.00;;;;;;5053395;28;20029;-73
2023/12/16 03:27:12;;;;;;;;;;;3.70;68.90;;;;;;5055115;28;20052;-71
2023/12/16 03:29:38;;;;;;;3.30;2.03;;;3.70;69.10;;;;;;5054941;28;19925;-71
2023/12/16 03:32:04;;;;;;;3.35;1.67;;;3.70;69.20;;;;;;5054189;28;20037;-71
2023/12/16 03:34:30;;;;;;;7.57;4.75;;;3.70;69.50;;;;;;5053098;28;20431;-73
2023/12/16 03:36:56;;;;;;;8.27;3.03;;;3.70;69.50;;;;;;5054491;28;20033;-73
2023/12/16 03:39:22;;;;;;;5.85;2.22;;;3.70;69.60;;;;;;5054607;28;20090;-72
2023/12/16 03:41:48;;;;;;;2.47;1.38;;;3.80;69.60;;;;;;5052383;28;20048;-71
2023/12/16 03:44:14;;;;;;;6.05;2.97;;;3.80;69.80;;;;;;5054116;28;20045;-73
2023/12/16 03:46:40;;;;;;;3.80;2.35;;;3.70;69.80;;;;;;5054171;28;20045;-72
2023/12/16 03:49:06;;;;;;;5.47;3.25;;;3.80;69.70;;;;;;5069715;28;20041;-72
2023/12/16 03:51:32;;;;;;;4.35;2.30;;;3.80;69.60;;;;;;5053659;28;20478;-72
2023/12/16 03:53:58;;;;;;;4.22;2.25;;;3.80;69.60;;;;;;5052552;28;20036;-73
2023/12/16 03:56:24;;;;;;;4.97;2.78;;;3.80;69.60;;;;;;5053994;28;20083;-73
2023/12/16 03:58:50;;;;;;;5.38;3.17;;;3.90;69.50;;;;;;5052704;28;20547;-73
2023/12/16 04:01:16;;;;;;;5.65;3.72;;;3.90;69.30;;;;;;5053420;28;20037;-73
2023/12/16 04:03:42;;;;;;;4.93;1.85;;;3.90;69.30;;;;;;5052696;28;20102;-71
2023/12/16 04:06:27;;;;;;;3.72;1.88;;;4.00;69.20;;;;;;5052513;28;20060;-73
2023/12/16 04:08:53;;;;;;;4.88;3.00;;;3.90;69.70;;;;;;5052431;28;20103;-71
2023/12/16 04:11:19;;;;;;;5.13;2.95;;;3.90;70.00;;;;;;5053484;28;20048;-71
2023/12/16 04:13:45;;;;;;;3.30;1.70;;;3.90;70.40;;;;;;5052360;28;20045;-73
2023/12/16 04:16:11;;;;;;;4.03;1.65;;;3.90;70.50;;;;;;5053521;28;20079;-73
2023/12/16 04:18:37;;;;;;;5.28;3.75;;;3.80;70.30;;;;;;5053644;28;20086;-71
2023/12/16 04:21:04;;;;;;;2.58;1.75;;;3.80;70.60;;;;;;5050677;28;20049;-73
2023/12/16 04:23:30;;;;;;;4.97;2.97;;;3.70;70.10;;;;;;5052125;28;20033;-73
2023/12/16 04:25:56;;;;;;;;;;;3.70;70.60;;;;;;5053911;28;20060;-73
2023/12/16 04:28:22;;;;;;;3.13;1.27;;;3.70;70.80;;;;;;5053396;28;20395;-71
2023/12/16 04:30:48;;;;;;;2.17;1.60;;;3.70;70.80;;;;;;5052798;28;20079;-73
2023/12/16 04:33:14;;;;;;;3.08;1.65;;;3.70;70.90;;;;;;5053284;28;20037;-73
2023/12/16 04:35:40;;;;;;;2.25;1.58;;;3.70;70.90;;;;;;5053289;28;20540;-71
2023/12/16 04:38:06;;;;;;;4.43;2.03;;;3.70;70.80;;;;;;5052173;28;20045;-71
2023/12/16 04:40:33;;;;;;;6.15;3.08;;;3.80;71.10;;;;;;5052576;28;20036;-71
2023/12/16 04:42:59;;;;;;;3.40;1.67;;;3.70;70.90;;;;;;5051966;28;20078;-72
2023/12/16 04:45:25;;;;;;;3.00;1.83;;;3.70;70.90;;;;;;5052963;28;20478;-71
2023/12/16 04:47:51;;;;;;;5.35;2.50;;;3.70;71.40;;;;;;5053116;28;20516;-71
2023/12/16 04:50:17;;;;;;;4.45;2.17;;;3.70;71.00;;;;;;5052461;28;20060;-71
2023/12/16 04:52:43;;;;;;;;;;;3.70;71.00;;;;;;5052257;28;20063;-71
2023/12/16 04:55:10;;;;;;;6.43;2.95;;;3.70;70.90;;;;;;5052696;28;20019;-73
2023/12/16 04:57:36;;;;;;;3.13;1.65;;;3.60;70.30;;;;;;5051626;28;20033;-71
2023/12/16 05:00:07;;;;;;;2.72;1.70;;;3.60;71.10;;;;;;5052204;28;20059;-72
2023/12/16 05:02:34;;;;;;;3.40;2.22;;;3.60;70.40;;;;;;5051648;28;20036;-71
2023/12/16 05:05:00;;;;;;;5.18;2.17;;;3.70;71.10;;;;;;5051326;28;20064;-73
2023/12/16 05:07:26;;;;;;;5.97;2.30;;;3.70;72.00;;;;;;5051396;28;20490;-71
2023/12/16 05:09:52;;;;;;;;;;;3.60;71.20;;;;;;5052149;28;20040;-73
2023/12/16 05:12:18;;;;;;;4.15;2.22;;;3.60;71.30;;;;;;5052369;28;19967;-72
2023/12/16 05:14:44;;;;;;;3.97;2.83;;;3.60;71.20;;;;;;5051334;28;20037;-71
2023/12/16 05:17:10;;;;;;;2.15;1.42;;;3.60;71.30;;;;;;5051153;28;20064;-71
2023/12/16 05:19:36;;;;;;;1.98;1.30;;;3.60;71.40;;;;;;5051363;28;20064;-73
2023/12/16 05:22:02;;;;;;;2.00;1.17;;;3.60;71.40;;;;;;5052006;28;20041;-71
2023/12/16 05:24:28;;;;;;;3.38;1.63;;;3.60;71.40;;;;;;5051123;28;20037;-71
2023/12/16 05:26:54;;;;;;;4.00;2.30;;;3.70;71.50;;;;;;5052284;28;20063;-71
2023/12/16 05:29:20;;;;;;;4.40;2.85;;;3.70;72.20;;;;;;5051172;28;20041;-73
2023/12/16 05:31:46;;;;;;;4.55;3.03;;;3.70;71.40;;;;;;5067031;28;20071;-73
2023/12/16 05:34:12;;;;;;;3.90;1.80;;;3.70;71.40;;;;;;5051894;28;20037;-71
2023/12/16 05:36:38;;;;;;;4.32;2.55;;;3.70;71.40;;;;;;5051028;28;20518;-72
2023/12/16 05:39:05;;;;;;;6.80;3.58;;;3.70;71.40;;;;;;5050716;28;20481;-73
2023/12/16 05:41:31;;;;;;;;;;;3.70;71.30;;;;;;5052233;28;20465;-73
2023/12/16 05:43:57;;;;;;;3.75;2.38;;;3.70;71.20;;;;;;5051914;28;19917;-73
2023/12/16 05:46:23;;;;;;;2.10;1.17;;;3.70;71.10;;;;;;5052130;28;20037;-72
2023/12/16 05:48:49;;;;;;;3.70;1.83;;;3.80;71.20;;;;;;5050513;28;20508;-71
2023/12/16 05:51:15;;;;;;;9.18;3.08;;;3.70;71.30;;;;;;5050518;28;20045;-71
2023/12/16 05:53:41;;;;;;;3.83;2.40;;;3.80;71.30;;;;;;5050477;28;20090;-72
2023/12/16 05:56:09;;;;;;;2.38;1.40;;;3.70;72.20;;;;;;5050589;28;20029;-71
2023/12/16 05:58:35;;;;;;;6.20;0.82;;;3.80;71.30;;;;;;5051875;28;20068;-72
2023/12/16 06:01:02;;;;;;;3.03;1.42;;;3.80;71.40;;;;;;5050111;28;20040;-72
2023/12/16 06:03:28;;;;;;;3.45;2.00;;;3.80;71.30;;;;;;5050651;28;20033;-73
2023/12/16 06:05:54;;;;;;;4.90;2.47;;;3.80;71.40;;;;;;5051749;28;20072;-71
2023/12/16 06:08:20;;;;;;;6.20;4.43;;;3.80;71.20;;;;;;5050486;28;20132;-71
2023/12/16 06:10:46;;;;;;;5.80;3.83;;;3.80;71.30;;;;;;5050004;28;20036;-73
2023/12/16 06:13:12;;;;;;;5.00;3.10;;;3.80;71.30;;;;;;5050733;28;20283;-73
2023/12/16 06:15:38;;;;;;;2.38;1.88;;;3.80;71.40;;;;;;5051519;28;20040;-73
2023/12/16 06:18:07;;;;;;;9.82;1.98;;;3.70;71.40;;;;;;5051985;28;20048;-71
2023/12/16 06:20:33;;;;;;;2.33;1.65;;;3.80;71.50;;;;;;5050096;28;20029;-73
2023/12/16 06:22:59;;;;;;;4.65;3.05;;;3.70;71.40;;;;;;5051867;28;20098;-71
2023/12/16 06:25:25;;;;;;;5.35;2.55;;;3.80;71.40;;;;;;5051155;28;20041;-72
2023/12/16 06:27:51;;;;;;;3.80;2.28;;;3.80;71.30;;;;;;5051853;28;20041;-73
2023/12/16 06:30:17;;;;;;;4.68;2.33;;;3.80;71.50;;;;;;5050794;28;20470;-71
2023/12/16 06:32:43;;;;;;;6.25;3.10;;;3.70;71.50;;;;;;5050493;28;20033;-73
2023/12/16 06:35:09;;;;;;;5.68;4.28;;;3.80;71.40;;;;;;5050093;28;20049;-71
2023/12/16 06:37:35;;;;;;;5.03;2.20;;;3.80;71.40;;;;;;5051887;28;20460;-71
2023/12/16 06:40:03;;;;;;;5.57;4.07;;;3.80;72.10;;;;;;5051982;28;20040;-72
2023/12/16 06:42:29;;;;;;;7.32;2.35;;;3.80;71.40;;;;;;5031352;28;20477;-72
2023/12/16 06:44:55;;;;;;;6.00;3.00;;;3.80;71.40;;;;;;5033517;28;20068;-71
2023/12/16 06:47:21;;;;;;;10.35;3.40;;;3.80;71.40;;;;;;5034318;28;20045;-71
2023/12/16 06:49:49;;;;;;;11.23;4.25;;;3.90;71.40;;;;;;5035276;28;20057;-73
2023/12/16 06:52:15;;;;;;;3.95;2.88;;;3.90;71.40;;;;;;5016863;28;20054;-73
2023/12/16 06:54:41;;;;;;;3.90;2.25;;;3.90;71.30;;;;;;5017195;28;20064;-73
2023/12/16 06:57:07;;;;;;;3.83;2.30;;;3.90;71.40;;;;;;5035287;28;20247;-73
2023/12/16 06:59:33;;;;;;;4.43;2.67;;;3.90;71.40;;;;;;5033698;28;20050;-73
2023/12/16 07:01:59;;;;;;;2.45;1.38;;;3.90;71.20;;;;;;5033251;28;20410;-71
2023/12/16 07:04:26;;;;;;;25.67;17.10;;;4.00;71.10;;;;;;5032966;28;20084;-71
2023/12/16 07:06:52;;;;;;;26.65;13.30;;;4.00;71.20;;;;;;5033905;28;20049;-71
2023/12/16 07:09:18;;;;;;;19.63;10.85;;;4.10;71.20;;;;;;5034918;28;20045;-73
2023/12/16 07:11:44;;;;;;;10.80;5.82;;;4.10;71.10;;;;;;5034635;28;20044;-73
2023/12/16 07:14:10;;;;;;;12.32;7.32;;;4.10;71.10;;;;;;5034512;28;20037;-72
2023/12/16 07:16:36;;;;;;;;;;;4.20;71.00;;;;;;5035475;28;20040;-73
2023/12/16 07:19:02;;;;;;;12.23;4.55;;;4.20;71.00;;;;;;5034720;28;20023;-71
2023/12/16 07:21:28;;;;;;;5.72;2.95;;;4.10;71.70;;;;;;5034236;28;20033;-73
2023/12/16 07:23:54;;;;;;;;;;;4.10;71.90;;;;;;5033710;28;20565;-71
2023/12/16 07:26:20;;;;;;;5.45;2.58;;;4.10;71.80;;;;;;5034681;28;19916;-71
2023/12/16 07:28:46;;;;;;;6.30;3.33;;;4.20;71.50;;;;;;5034519;28;20116;-71
2023/12/16 07:31:12;;;;;;;5.82;3.55;;;4.20;71.50;;;;;;5034123;28;20053;-71
2023/12/16 07:33:38;;;;;;;4.05;1.77;;;4.20;71.80;;;;;;5033398;28;20046;-73
2023/12/16 07:36:05;;;;;;;5.78;2.33;;;4.30;71.90;;;;;;5033114;28;20044;-73
2023/12/16 07:38:31;;;;;;;6.40;2.83;;;4.20;71.20;;;;;;5034614;28;20033;-73
2023/12/16 07:40:57;;;;;;;5.90;2.95;;;4.30;72.00;;;;;;5033983;28;20034;-73
2023/12/16 07:43:23;;;;;;;4.13;2.30;;;4.30;72.00;;;;;;5016608;28;20037;-71
2023/12/16 07:45:49;;;;;;;3.42;2.63;;;4.40;71.80;;;;;;5032868;28;20036;-71
2023/12/16 07:48:15;;;;;;;5.20;3.67;;;4.40;71.50;;;;;;5032992;28;20120;-71
2023/12/16 07:50:42;;;;;;;4.53;1.60;;;4.40;71.40;;;;;;5033713;28;20120;-71
2023/12/16 07:53:08;;;;;;;7.75;4.20;;;4.60;71.40;;;;;;5032872;28;20049;-73
2023/12/16 07:55:34;;;;;;;5.20;2.58;;;4.60;71.20;;;;;;5033876;28;20038;-71
2023/12/16 07:58:01;;;;;;;6.55;2.90;;;4.70;71.40;;;;;;5034185;28;20041;-71
2023/12/16 08:00:27;;;;;;;6.90;4.60;;;4.70;71.30;;;;;;5032173;28;20376;-73
2023/12/16 08:02:53;;;;;;;7.57;5.05;;;4.80;71.10;;;;;;5032953;28;20513;-71
2023/12/16 08:05:19;;;;;;;7.25;3.88;;;4.80;71.30;;;;;;5033731;28;20048;-73
2023/12/16 08:07:46;;;;;;;10.65;2.80;;;4.80;71.50;;;;;;5033821;28;20033;-71
2023/12/16 08:10:12;;;;;;;4.90;3.40;;;4.80;71.60;;;;;;5032092;28;20040;-73
2023/12/16 08:12:38;;;;;;;6.32;2.35;;;4.80;71.00;;;;;;5033745;28;20029;-73
2023/12/16 08:15:05;;;;;;;5.47;2.60;;;4.90;71.90;;;;;;5032524;28;20534;-71
2023/12/16 08:17:31;;;;;;;6.60;2.63;;;4.90;71.40;;;;;;5033729;28;20064;-72
2023/12/16 08:19:57;;;;;;;2.13;1.23;;;5.00;71.70;;;;;;5032597;28;20041;-71
2023/12/16 08:22:23;;;;;;;3.55;1.98;;;5.00;71.10;;;;;;5031780;28;20040;-72
2023/12/16 08:24:49;;;;;;;2.20;1.50;;;5.10;71.20;;;;;;5032177;28;20071;-71
2023/12/16 08:27:16;;;;;;;1.50;1.10;;;5.20;71.00;;;;;;5016090;28;20042;-71
2023/12/16 08:29:45;;;;;;;3.05;1.67;;;5.20;70.80;;;;;;5033644;28;20037;-71
2023/12/16 08:32:11;;;;;;;5.13;2.58;;;5.30;70.50;;;;;;5033186;28;20049;-71
2023/12/16 08:34:37;;;;;;;7.22;3.53;;;5.40;70.50;;;;;;5031957;28;20033;-72
2023/12/16 08:37:03;;;;;;;6.18;3.83;;;5.50;70.20;;;;;;5032321;28;20450;-71
2023/12/16 08:39:29;;;;;;;7.22;2.53;;;5.50;69.90;;;;;;5033645;28;20554;-73
2023/12/16 08:41:55;;;;;;;10.50;2.60;;;5.60;69.90;;;;;;5031677;28;20043;-71
2023/12/16 08:44:21;;;;;;;6.28;2.35;;;5.60;69.70;;;;;;5031957;28;20045;-73
2023/12/16 08:46:47;;;;;;;7.22;3.65;;;5.60;69.70;;;;;;5032978;28;20034;-73
2023/12/16 08:49:13;;;;;;;7.35;3.22;;;5.70;70.40;;;;;;5033442;28;20099;-73
2023/12/16 08:51:39;;;;;;;6.18;4.13;;;5.80;69.20;;;;;;5032553;28;20534;-71
2023/12/16 08:54:05;;;;;;;3.53;2.17;;;5.80;69.00;;;;;;5031578;28;20643;-71
2023/12/16 08:56:31;;;;;;;4.80;2.13;;;5.90;68.70;;;;;;5031667;28;20041;-73
2023/12/16 08:58:57;;;;;;;2.97;2.47;;;5.90;68.50;;;;;;5031768;28;20037;-72
2023/12/16 09:01:23;;;;;;;4.93;3.72;;;6.00;68.20;;;;;;5032489;28;20034;-71
2023/12/16 09:03:49;;;;;;;3.15;2.33;;;6.10;67.60;;;;;;5015016;28;20479;-73
2023/12/16 09:06:16;;;;;;;3.35;2.15;;;6.10;67.50;;;;;;5032094;28;20404;-71
2023/12/16 09:08:42;;;;;;;;;;;6.20;67.00;;;;;;5033557;28;20526;-71
2023/12/16 09:11:09;;;;;;;7.72;3.17;;;6.30;67.80;;;;;;5030918;28;19923;-73
2023/12/16 09:13:35;;;;;;;4.80;2.50;;;6.30;67.40;;;;;;5032718;28;20048;-73
2023/12/16 09:16:01;;;;;;;2.88;1.73;;;6.30;67.20;;;;;;5014733;28;20029;-72
2023/12/16 09:18:27;;;;;;;7.05;3.70;;;6.40;67.40;;;;;;5031354;28;20045;-71
2023/12/16 09:20:53;;;;;;;3.72;2.25;;;6.50;67.10;;;;;;5032061;28;20091;-71
2023/12/16 09:23:19;;;;;;;3.97;2.38;;;6.60;66.40;;;;;;5031049;28;20120;-73
2023/12/16 09:25:45;;;;;;;5.78;1.92;;;6.70;66.60;;;;;;5032381;28;20402;-73
2023/12/16 09:28:11;;;;;;;4.65;2.33;;;6.80;66.30;;;;;;5014762;28;20042;-72
2023/12/16 09:30:37;;;;;;;4.45;2.45;;;6.90;66.10;;;;;;5030659;28;20037;-71
2023/12/16 09:33:04;;;;;;;5.57;2.65;;;7.00;65.70;;;;;;5031249;28;20053;-73
2023/12/16 09:35:30;;;;;;;4.75;2.40;;;7.10;64.90;;;;;;5032195;28;20029;-73
2023/12/16 09:37:56;;;;;;;6.40;1.63;;;7.30;64.20;;;;;;5031274;28;20439;-73
2023/12/16 09:40:22;;;;;;;4.10;2.38;;;7.30;64.60;;;;;;5031548;28;20029;-73
2023/12/16 09:42:54;;;;;;;1.05;0.50;;;7.40;63.00;;;;;;5032244;28;20076;-73
2023/12/16 09:45:20;;;;;;;2.80;1.48;;;7.50;62.20;;;;;;5030928;28;20087;-73
2023/12/16 09:47:48;;;;;;;;;;;7.60;62.40;;;;;;5015072;28;20239;-73
2023/12/16 09:50:15;;;;;;;2.95;1.70;;;7.70;61.90;;;;;;5031650;28;19935;-73
2023/12/16 09:52:40;;;;;;;;;;;7.80;61.40;;;;;;5031557;28;20041;-73
2023/12/16 09:55:08;;;;;;;4.53;2.28;;;7.90;61.20;;;;;;5032327;28;20420;-71
2023/12/16 09:57:38;;;;;;;1.42;1.27;;;7.90;60.10;;;;;;5014299;28;20017;-73
2023/12/16 10:00:05;;;;;;;1.60;0.95;;;8.00;59.60;;;;;;5030036;28;20037;-71
2023/12/16 10:02:31;;;;;;;2.10;1.83;;;8.00;59.90;;;;;;5014480;28;20041;-73
2023/12/16 10:04:59;;;;;;;3.53;2.55;;;8.10;60.10;;;;;;5031974;28;20083;-73
2023/12/16 10:07:25;;;;;;;3.15;1.88;;;8.10;59.40;;;;;;5031918;28;20075;-73
2023/12/16 10:09:52;;;;;;;8.98;3.72;;;8.20;59.60;;;;;;5032418;28;20124;-73
2023/12/16 10:12:19;;;;;;;4.43;1.88;;;8.20;59.30;;;;;;5013665;28;20095;-73
2023/12/16 10:15:04;;;;;;;7.45;1.23;;;8.30;58.40;;;;;;5031432;28;20042;-73
2023/12/16 10:17:31;;;;;;;4.07;1.75;;;8.30;57.90;;;;;;5031930;28;20033;-73
2023/12/16 10:19:57;;;;;;;6.05;1.95;;;8.40;58.50;;;;;;5034492;28;20038;-73
2023/12/16 10:22:24;;;;;;;5.35;2.97;;;8.40;58.80;;;;;;5034168;28;20128;-73
2023/12/16 10:24:51;;;;;;;4.05;2.10;;;8.50;59.00;;;;;;5036083;28;20599;-73
2023/12/16 10:27:18;;;;;;;;;;;8.50;58.10;;;;;;5035142;28;20025;-73
2023/12/16 10:29:44;;;;;;;7.72;3.42;;;8.50;58.50;;;;;;5036069;28;20316;-71
2023/12/16 10:32:11;;;;;;;2.13;1.33;;;8.60;58.40;;;;;;5016374;28;20380;-73
2023/12/16 10:34:38;;;;;;;2.58;1.27;;;8.50;58.10;;;;;;5041938;28;20401;-73
2023/12/16 10:37:23;;;;;;;1.40;0.70;;;8.40;57.60;;;;;;5053631;28;20036;-73
2023/12/16 10:39:49;;;;;;;5.18;1.88;;;8.50;58.20;;;;;;5049452;28;20536;-71
2023/12/16 10:42:15;;;;;;;8.50;4.25;;;8.60;57.60;;;;;;5067244;28;20063;-71
2023/12/16 10:44:41;;;;;;;1.58;1.48;;;8.70;57.70;;;;;;5075443;28;20128;-72
2023/12/16 10:47:11;;;;;;;1.13;0.75;;;8.90;57.40;;;;;;5075421;28;20032;-71
2023/12/16 10:49:45;;;;;;;1.70;1.17;;;9.20;56.40;;;;;;5066656;28;20053;-72
2023/12/16 10:52:13;;;;;;;4.22;2.83;;;9.40;55.50;;;;;;5048592;28;20097;-73
2023/12/16 10:55:02;;;;;;;2.05;0.80;;;9.60;54.80;;;;;;5052924;28;20441;-72
2023/12/16 10:58:25;;;;;;;0.95;0.50;;;9.80;54.20;;;;;;5053811;28;20052;-71
2023/12/16 11:00:52;;;;;;;1.23;1.02;;;10.10;53.60;;;;;;5053951;28;20501;-72
2023/12/16 11:03:42;;;;;;;0.70;0.40;;;10.30;52.90;;;;;;5053581;28;20533;-73
2023/12/16 11:06:16;;;;;;;1.80;0.95;;;11.00;50.80;;;;;;5053675;28;20060;-72
2023/12/16 11:08:44;;;;;;;3.63;3.20;;;11.30;50.40;;;;;;5033976;28;20071;-71
2023/12/16 11:11:10;;;;;;;6.38;3.15;;;11.30;49.70;;;;;;5035188;28;20033;-72
2023/12/16 11:13:37;;;;;;;4.20;2.38;;;11.20;49.50;;;;;;5050244;28;20191;-72
2023/12/16 11:16:14;;;;;;;6.68;2.28;;;11.50;49.70;;;;;;5016654;28;20100;-72
2023/12/16 11:18:42;;;;;;;;;;;11.50;48.80;;;;;;5050890;28;20052;-71
2023/12/16 11:21:13;;;;;;;12.05;4.63;;;11.40;49.90;;;;;;5016396;28;19917;-72
2023/12/16 11:24:01;;;;;;;5.60;2.63;;;11.30;49.30;;;;;;5048598;28;20421;-73
2023/12/16 11:26:27;;;;;;;1.45;1.00;;;11.30;49.20;;;;;;5053201;28;20021;-73
2023/12/16 11:28:54;;;;;;;;;;;11.30;49.20;;;;;;5054610;28;20037;-73
2023/12/16 11:31:20;;;;;;;7.70;1.92;;;11.30;49.50;;;;;;5052831;28;19920;-71
2023/12/16 11:33:47;;;;;;;1.65;0.88;;;11.30;49.10;;;;;;5053332;28;20040;-72
2023/12/16 11:36:14;;;;;;;2.88;1.27;;;11.20;48.60;;;;;;5053239;28;20371;-72
2023/12/16 11:38:42;;;;;;;7.30;1.42;;;11.30;48.50;;;;;;5036524;28;20036;-73
2023/12/16 11:41:11;;;;;;;4.30;1.88;;;11.20;48.90;;;;;;5053175;28;20443;-72
2023/12/16 11:43:57;;;;;;;4.90;3.45;;;11.10;49.10;;;;;;5036123;28;20041;-73
2023/12/16 11:46:42;;;;;;;4.18;2.85;;;11.10;49.50;;;;;;5054181;28;20033;-73
2023/12/16 11:49:14;;;;;;;3.17;1.90;;;10.90;49.60;;;;;;5053203;28;20040;-73
2023/12/16 11:51:40;;;;;;;5.72;1.08;;;10.80;49.90;;;;;;5052332;28;20060;-73
2023/12/16 11:54:11;;;;;;;2.30;1.77;;;10.70;49.70;;;;;;5052902;28;20175;-71
2023/12/16 11:56:37;;;;;;;3.13;1.70;;;10.80;49.70;;;;;;5052674;28;20040;-71
2023/12/16 11:59:05;;;;;;;7.43;2.22;;;10.80;49.60;;;;;;5035387;28;20041;-73
2023/12/16 12:01:32;;;;;;;1.95;1.30;;;10.70;49.40;;;;;;5052045;28;20500;-72
2023/12/16 12:04:02;;;;;;;4.18;2.25;;;10.70;49.60;;;;;;5052300;28;20047;-73
2023/12/16 12:06:29;;;;;;;4.85;1.95;;;10.80;50.10;;;;;;5052720;28;20044;-73
2023/12/16 12:08:55;;;;;;;5.05;2.58;;;10.70;50.10;;;;;;5053622;28;20033;-73
2023/12/16 12:11:21;;;;;;;2.10;1.02;;;10.80;49.20;;;;;;5052121;28;20037;-71
2023/12/16 12:13:51;;;;;;;2.58;1.88;;;10.90;49.70;;;;;;5031297;28;20059;-73
2023/12/16 12:16:17;;;;;;;2.60;1.52;;;11.00;49.80;;;;;;5036865;28;20025;-73
2023/12/16 12:18:43;;;;;;;2.55;1.42;;;10.90;50.00;;;;;;5049254;28;20432;-73
2023/12/16 12:21:10;;;;;;;3.70;0.88;;;10.80;49.80;;;;;;5033271;28;20030;-71
2023/12/16 12:23:37;;;;;;;1.83;1.38;;;10.60;48.90;;;;;;5032298;28;20490;-73
2023/12/16 12:26:04;;;;;;;1.40;1.02;;;10.50;49.70;;;;;;5015790;28;20029;-72
2023/12/16 12:28:30;;;;;;;2.55;1.15;;;10.50;50.10;;;;;;5028983;28;20033;-71
2023/12/16 12:31:16;;;;;;;;;;;10.50;50.80;;;;;;5052208;28;20033;-72
2023/12/16 12:33:42;;;;;;;2.33;1.15;;;10.70;50.60;;;;;;5052920;28;19927;-73
2023/12/16 12:36:10;;;;;;;2.78;1.83;;;10.60;50.10;;;;;;5053117;28;20052;-72
2023/12/16 12:38:37;;;;;;;3.72;1.45;;;10.60;50.30;;;;;;5051861;28;20044;-72
2023/12/16 12:41:06;;;;;;;6.20;2.97;;;10.40;50.70;;;;;;5051862;28;20032;-72
2023/12/16 12:43:34;;;;;;;3.30;1.23;;;10.30;51.30;;;;;;5053027;28;20036;-72
2023/12/16 12:46:19;;;;;;;3.47;1.45;;;10.30;51.10;;;;;;5051701;28;20041;-73
2023/12/16 12:49:04;;;;;;;2.88;1.35;;;10.30;51.10;;;;;;5034405;28;20566;-73
2023/12/16 12:51:30;;;;;;;3.17;1.38;;;10.10;51.30;;;;;;5052682;28;20045;-73
2023/12/16 12:53:58;;;;;;;3.50;1.38;;;10.10;51.30;;;;;;5051331;28;20064;-72
2023/12/16 12:56:24;;;;;;;4.65;2.47;;;10.10;51.40;;;;;;5051774;28;20033;-72
2023/12/16 12:58:50;;;;;;;5.97;2.92;;;10.10;51.70;;;;;;5051452;28;20044;-72
2023/12/16 13:01:16;;;;;;;;;;;10.10;51.50;;;;;;5051641;28;20528;-73